Time;durP1;ratioP1;P1;durP2;ratioP2;P2;SDS_P1;SDS_P2;PMS_P1;PMS_P2;Temp;Humidity;BMP_temperature;BMP_pressure;BME280_temperature;BME280_humidity;BME280_pressure;Samples;Min_cycle;Max_cycle;Signal;HPM_P1;HPM_P2
2021/04/17 00:01:38;;;;;;;15.50;8.20;;;4.50;92.80;;;;;;5035285;28;20046;-80
2021/04/17 00:04:10;;;;;;;12.38;7.30;;;4.50;93.20;;;;;;5038332;28;20041;-80
2021/04/17 00:06:36;;;;;;;12.90;7.40;;;4.40;93.30;;;;;;5027029;28;20037;-78
2021/04/17 00:09:08;;;;;;;12.90;7.68;;;4.40;93.80;;;;;;5020947;28;20075;-81
2021/04/17 00:11:34;;;;;;;11.63;6.65;;;4.40;93.80;;;;;;5020174;28;20033;-79
2021/04/17 00:14:00;;;;;;;11.23;7.68;;;4.50;93.90;;;;;;5033654;28;20029;-79
2021/04/17 00:16:26;;;;;;;12.45;7.75;;;4.40;94.20;;;;;;5022483;28;20133;-79
2021/04/17 00:18:52;;;;;;;15.65;7.53;;;4.40;94.30;;;;;;5034228;28;20389;-80
2021/04/17 00:21:18;;;;;;;12.45;7.20;;;4.40;94.20;;;;;;5026460;28;20034;-79
2021/04/17 00:23:44;;;;;;;11.95;7.35;;;4.50;94.20;;;;;;5028559;28;20103;-79
2021/04/17 00:26:10;;;;;;;12.88;7.47;;;4.50;94.40;;;;;;5031128;28;20132;-80
2021/04/17 00:28:35;;;;;;;17.25;8.23;;;4.40;94.40;;;;;;5028510;28;20068;-80
2021/04/17 00:31:01;;;;;;;11.38;7.57;;;4.40;94.40;;;;;;5031375;28;20324;-80
2021/04/17 00:33:26;;;;;;;12.93;7.63;;;4.40;94.60;;;;;;5031805;28;20099;-79
2021/04/17 00:35:52;;;;;;;14.88;7.72;;;4.40;94.70;;;;;;5024801;28;20823;-79
2021/04/17 00:38:18;;;;;;;13.85;7.72;;;4.40;94.80;;;;;;5031206;28;20060;-81
2021/04/17 00:40:44;;;;;;;11.52;7.32;;;4.40;94.80;;;;;;5029392;28;20500;-79
2021/04/17 00:43:10;;;;;;;12.45;7.43;;;4.40;95.10;;;;;;5027974;28;20512;-80
2021/04/17 00:45:35;;;;;;;15.32;7.40;;;4.40;95.00;;;;;;5029652;28;20041;-80
2021/04/17 00:48:01;;;;;;;13.50;7.72;;;4.40;94.80;;;;;;5025208;28;20041;-80
2021/04/17 00:50:27;;;;;;;16.23;8.45;;;4.40;95.10;;;;;;5028984;28;20089;-81
2021/04/17 00:52:54;;;;;;;12.48;7.78;;;4.50;95.00;;;;;;5031234;28;20476;-81
2021/04/17 00:55:20;;;;;;;13.85;7.40;;;4.40;95.00;;;;;;5035420;28;20063;-80
2021/04/17 00:57:46;;;;;;;11.70;8.15;;;4.40;95.00;;;;;;5028260;28;20112;-80
2021/04/17 01:00:13;;;;;;;13.75;8.40;;;4.40;95.30;;;;;;5037754;28;20516;-79
2021/04/17 01:02:55;;;;;;;13.48;7.78;;;4.40;95.50;;;;;;5030672;28;20041;-79
2021/04/17 01:05:22;;;;;;;15.95;8.02;;;4.40;95.50;;;;;;5028904;28;20068;-79
2021/04/17 01:07:51;;;;;;;16.25;9.40;;;4.40;95.30;;;;;;5030643;28;22551;-81
2021/04/17 01:10:27;;;;;;;15.27;8.20;;;4.40;95.30;;;;;;5030882;28;20117;-79
2021/04/17 01:12:55;;;;;;;13.50;7.40;;;4.40;95.20;;;;;;5025697;28;20041;-79
2021/04/17 01:15:22;;;;;;;18.42;9.20;;;4.40;95.10;;;;;;5023006;28;20061;-78
2021/04/17 01:17:52;;;;;;;11.25;7.50;;;4.40;94.80;;;;;;5016201;28;20053;-77
2021/04/17 01:20:31;;;;;;;15.82;8.05;;;4.40;94.80;;;;;;5025198;28;20038;-77
2021/04/17 01:23:07;;;;;;;14.40;8.52;;;4.40;94.90;;;;;;5021257;28;20447;-79
2021/04/17 01:25:54;;;;;;;22.52;8.85;;;4.40;94.90;;;;;;5021149;28;20042;-79
2021/04/17 01:28:21;;;;;;;13.23;7.97;;;4.40;95.10;;;;;;5023002;28;20037;-78
2021/04/17 01:30:49;;;;;;;14.48;8.27;;;4.40;95.10;;;;;;5032792;28;20037;-79
2021/04/17 01:33:17;;;;;;;15.43;8.00;;;4.40;95.30;;;;;;5023906;28;20038;-79
2021/04/17 01:35:44;;;;;;;13.65;8.20;;;4.30;95.60;;;;;;5016387;28;20101;-78
2021/04/17 01:38:20;;;;;;;12.32;7.93;;;4.30;95.60;;;;;;5024489;28;20049;-78
2021/04/17 01:40:49;;;;;;;16.48;8.55;;;4.30;95.80;;;;;;5021929;28;20038;-78
2021/04/17 01:43:16;;;;;;;15.63;8.43;;;4.30;96.10;;;;;;5024330;28;20060;-79
2021/04/17 01:45:42;;;;;;;15.00;9.18;;;4.30;96.30;;;;;;5023317;28;20557;-79
2021/04/17 01:48:10;;;;;;;16.60;8.98;;;4.20;96.40;;;;;;5023169;28;20103;-79
2021/04/17 01:50:37;;;;;;;17.42;8.05;;;4.20;96.50;;;;;;5029193;28;20045;-80
2021/04/17 01:53:05;;;;;;;15.02;8.50;;;4.20;96.60;;;;;;5057170;28;20064;-80
2021/04/17 01:55:33;;;;;;;16.45;9.70;;;4.10;96.60;;;;;;5029230;28;20076;-80
2021/04/17 01:58:01;;;;;;;22.42;8.57;;;4.10;97.00;;;;;;5016205;28;20068;-80
2021/04/17 02:00:26;;;;;;;18.85;8.88;;;4.10;97.80;;;;;;5014567;28;20343;-80
2021/04/17 02:02:52;;;;;;;16.00;8.98;;;4.00;97.90;;;;;;5017051;28;20037;-80
2021/04/17 02:05:18;;;;;;;16.48;9.50;;;4.00;98.20;;;;;;5028926;28;20252;-80
2021/04/17 02:07:43;;;;;;;23.88;10.20;;;4.00;98.60;;;;;;5027428;28;20492;-79
2021/04/17 02:10:09;;;;;;;19.38;9.55;;;3.90;98.90;;;;;;5028646;28;20045;-79
2021/04/17 02:12:35;;;;;;;18.38;9.70;;;3.90;99.50;;;;;;5026256;28;20160;-79
2021/04/17 02:15:03;;;;;;;17.13;10.02;;;3.90;99.90;;;;;;5025744;28;20053;-79
2021/04/17 02:17:40;;;;;;;16.58;10.18;;;3.90;99.90;;;;;;5026413;28;20064;-80
2021/04/17 02:20:12;;;;;;;16.55;9.18;;;3.80;99.90;;;;;;5031181;28;20125;-79
2021/04/17 02:22:40;;;;;;;15.63;9.35;;;3.80;99.90;;;;;;5031895;28;20104;-80
2021/04/17 02:25:06;;;;;;;14.63;9.20;;;3.80;99.90;;;;;;5025930;28;20127;-79
2021/04/17 02:27:32;;;;;;;16.95;10.20;;;3.80;99.90;;;;;;5030447;28;20034;-79
2021/04/17 02:29:58;;;;;;;18.35;10.20;;;3.80;99.90;;;;;;5024172;28;20389;-79
2021/04/17 02:32:24;;;;;;;19.25;10.35;;;3.80;99.90;;;;;;5031637;28;20033;-79
2021/04/17 02:34:50;;;;;;;17.38;9.63;;;3.80;99.90;;;;;;5027666;28;20044;-79
2021/04/17 02:37:17;;;;;;;21.90;10.55;;;3.80;99.90;;;;;;5027768;28;20044;-79
2021/04/17 02:39:42;;;;;;;18.75;10.60;;;3.80;99.90;;;;;;5032714;28;20044;-80
2021/04/17 02:42:11;;;;;;;22.45;9.95;;;3.80;99.90;;;;;;5035666;28;20037;-79
2021/04/17 02:44:37;;;;;;;19.88;9.90;;;3.70;99.90;;;;;;5032165;28;20041;-79
2021/04/17 02:47:03;;;;;;;20.70;10.20;;;3.70;99.90;;;;;;5030485;28;20030;-79
2021/04/17 02:49:29;;;;;;;17.90;10.70;;;3.70;99.90;;;;;;5039130;28;20053;-79
2021/04/17 02:51:55;;;;;;;18.30;10.77;;;3.70;99.90;;;;;;5033035;28;20460;-79
2021/04/17 02:54:21;;;;;;;17.50;10.65;;;3.70;99.90;;;;;;5032908;28;20475;-78
2021/04/17 02:56:46;;;;;;;19.95;11.05;;;3.70;99.90;;;;;;5031185;28;20202;-79
2021/04/17 02:59:12;;;;;;;18.95;10.23;;;3.70;99.90;;;;;;5033200;28;20509;-81
2021/04/17 03:01:37;;;;;;;24.45;11.48;;;3.70;99.90;;;;;;5031452;28;20038;-80
2021/04/17 03:04:04;;;;;;;17.25;10.20;;;3.70;99.90;;;;;;5032700;28;20037;-80
2021/04/17 03:06:30;;;;;;;17.27;9.93;;;3.70;99.90;;;;;;5036850;28;20033;-80
2021/04/17 03:08:55;;;;;;;22.75;10.98;;;3.70;99.90;;;;;;5035968;28;20279;-79
2021/04/17 03:11:21;;;;;;;22.23;11.93;;;3.70;99.90;;;;;;5035202;28;20033;-80
2021/04/17 03:13:46;;;;;;;22.20;11.05;;;3.70;99.90;;;;;;5036201;28;20067;-80
2021/04/17 03:16:12;;;;;;;20.83;11.70;;;3.80;99.90;;;;;;5033487;28;20304;-80
2021/04/17 03:18:38;;;;;;;24.27;11.77;;;3.70;99.90;;;;;;5029226;28;20041;-80
2021/04/17 03:21:04;;;;;;;19.90;11.55;;;3.70;99.90;;;;;;5031963;28;20045;-80
2021/04/17 03:23:29;;;;;;;20.08;11.77;;;3.70;99.90;;;;;;5041748;28;20057;-80
2021/04/17 03:25:55;;;;;;;20.35;11.48;;;3.60;99.90;;;;;;5028568;28;20053;-80
2021/04/17 03:28:20;;;;;;;18.35;10.77;;;3.60;99.90;;;;;;5033899;28;20113;-80
2021/04/17 03:30:47;;;;;;;20.15;12.05;;;3.60;99.90;;;;;;5030031;28;20084;-80
2021/04/17 03:33:12;;;;;;;19.98;11.68;;;3.60;99.90;;;;;;5029121;28;20055;-80
2021/04/17 03:35:38;;;;;;;21.67;12.10;;;3.60;99.90;;;;;;5038302;28;20033;-80
2021/04/17 03:38:04;;;;;;;17.83;10.98;;;3.60;99.90;;;;;;5039693;28;20163;-80
2021/04/17 03:40:30;;;;;;;18.02;11.55;;;3.60;99.90;;;;;;5035736;28;20029;-80
2021/04/17 03:42:56;;;;;;;18.95;11.05;;;3.60;99.90;;;;;;5037158;28;20038;-80
2021/04/17 03:45:22;;;;;;;20.45;13.02;;;3.70;99.90;;;;;;5039520;28;20067;-80
2021/04/17 03:47:48;;;;;;;21.58;12.07;;;3.70;99.90;;;;;;5030780;28;20061;-79
2021/04/17 03:50:15;;;;;;;21.15;12.55;;;3.70;99.90;;;;;;5044463;28;20041;-79
2021/04/17 03:52:42;;;;;;;19.58;12.70;;;3.70;99.90;;;;;;5037739;28;20090;-79
2021/04/17 03:55:14;;;;;;;22.38;12.27;;;3.70;99.90;;;;;;5032405;28;20041;-79
2021/04/17 03:57:41;;;;;;;20.23;12.00;;;3.70;99.90;;;;;;5034259;28;20120;-79
2021/04/17 04:00:08;;;;;;;19.98;12.05;;;3.70;99.90;;;;;;5037079;28;20141;-79
2021/04/17 04:02:35;;;;;;;23.08;12.70;;;3.70;99.90;;;;;;5032027;28;20041;-79
2021/04/17 04:05:01;;;;;;;32.28;12.73;;;3.70;99.90;;;;;;5033308;28;20037;-79
2021/04/17 04:07:26;;;;;;;20.25;11.98;;;3.70;99.90;;;;;;5029791;28;20048;-80
2021/04/17 04:09:52;;;;;;;21.15;11.55;;;3.60;99.90;;;;;;5035681;28;20042;-80
2021/04/17 04:12:18;;;;;;;21.42;13.02;;;3.60;99.90;;;;;;5037546;28;20034;-79
2021/04/17 04:14:43;;;;;;;21.25;12.20;;;3.60;99.90;;;;;;5040603;28;20033;-79
2021/04/17 04:17:09;;;;;;;20.75;12.38;;;3.50;99.90;;;;;;5051976;28;20072;-79
2021/04/17 04:19:34;;;;;;;27.52;13.80;;;3.40;99.90;;;;;;5042157;28;20048;-79
2021/04/17 04:22:00;;;;;;;23.77;12.48;;;3.40;99.90;;;;;;5046681;28;20021;-79
2021/04/17 04:24:25;;;;;;;21.95;12.70;;;3.40;99.90;;;;;;5049738;28;20047;-80
2021/04/17 04:26:51;;;;;;;22.20;12.73;;;3.30;99.90;;;;;;5041526;28;20040;-80
2021/04/17 04:29:17;;;;;;;27.52;12.88;;;3.30;99.90;;;;;;5047310;28;20100;-80
2021/04/17 04:31:42;;;;;;;23.38;12.55;;;3.30;99.90;;;;;;5042920;28;20018;-80
2021/04/17 04:34:08;;;;;;;25.90;14.20;;;3.40;99.90;;;;;;5058203;28;21622;-78
2021/04/17 04:36:33;;;;;;;24.13;13.38;;;3.40;99.90;;;;;;5043917;28;20038;-78
2021/04/17 04:38:59;;;;;;;25.10;13.50;;;3.30;99.90;;;;;;5040141;28;20269;-80
2021/04/17 04:41:24;;;;;;;27.38;14.25;;;3.30;99.90;;;;;;5028951;28;20517;-79
2021/04/17 04:43:50;;;;;;;27.10;14.05;;;3.30;99.90;;;;;;5027150;28;20688;-79
2021/04/17 04:46:16;;;;;;;21.90;13.32;;;3.30;99.90;;;;;;5029884;28;20049;-79
2021/04/17 04:48:41;;;;;;;25.60;14.55;;;3.30;99.90;;;;;;5031886;28;20041;-79
2021/04/17 04:51:07;;;;;;;25.92;14.02;;;3.30;99.90;;;;;;5027924;28;20041;-78
2021/04/17 04:53:33;;;;;;;23.23;12.98;;;3.40;99.90;;;;;;5021291;28;20037;-79
2021/04/17 04:56:04;;;;;;;29.60;14.50;;;3.40;99.90;;;;;;5026882;28;20048;-79
2021/04/17 04:58:29;;;;;;;21.23;13.40;;;3.50;99.90;;;;;;5031475;28;20050;-79
2021/04/17 05:00:55;;;;;;;25.02;13.25;;;3.50;99.90;;;;;;5023635;28;20053;-79
2021/04/17 05:03:20;;;;;;;30.50;13.65;;;3.50;99.90;;;;;;5034027;28;20065;-79
2021/04/17 05:05:46;;;;;;;28.20;14.00;;;3.60;99.90;;;;;;5035049;28;20053;-79
2021/04/17 05:08:12;;;;;;;26.45;14.10;;;3.60;99.90;;;;;;5026490;28;20060;-79
2021/04/17 05:10:37;;;;;;;25.13;13.48;;;3.60;99.90;;;;;;5026490;28;20642;-79
2021/04/17 05:13:03;;;;;;;22.38;13.90;;;3.70;99.90;;;;;;5029800;28;20033;-79
2021/04/17 05:15:29;;;;;;;24.13;13.68;;;3.80;99.90;;;;;;5027933;28;20041;-79
2021/04/17 05:17:54;;;;;;;28.92;15.30;;;3.80;99.90;;;;;;5023828;28;20067;-79
2021/04/17 05:20:20;;;;;;;21.63;13.40;;;3.80;99.90;;;;;;5030394;28;20041;-79
2021/04/17 05:22:45;;;;;;;25.13;14.07;;;3.90;99.90;;;;;;5025460;28;20025;-79
2021/04/17 05:25:11;;;;;;;26.17;14.55;;;4.00;99.90;;;;;;5030250;28;20042;-79
2021/04/17 05:27:37;;;;;;;23.48;14.23;;;4.00;99.90;;;;;;5026423;28;20064;-79
2021/04/17 05:30:04;;;;;;;26.33;14.70;;;4.10;99.90;;;;;;5021064;28;20037;-79
2021/04/17 05:32:30;;;;;;;24.73;14.02;;;4.20;99.90;;;;;;5024960;28;20579;-79
2021/04/17 05:34:55;;;;;;;27.58;14.68;;;4.30;99.90;;;;;;5024833;28;20136;-80
2021/04/17 05:37:21;;;;;;;27.08;14.15;;;4.30;99.90;;;;;;5029571;28;20152;-80
2021/04/17 05:39:46;;;;;;;21.90;13.52;;;4.40;99.90;;;;;;5026032;28;20064;-79
2021/04/17 05:42:12;;;;;;;23.30;13.73;;;4.50;99.90;;;;;;5019837;28;20041;-80
2021/04/17 05:44:37;;;;;;;29.77;13.88;;;4.60;99.90;;;;;;5014876;28;20087;-80
2021/04/17 05:47:03;;;;;;;26.35;14.10;;;4.70;99.90;;;;;;5020116;28;20037;-80
2021/04/17 05:49:29;;;;;;;25.75;13.73;;;4.80;99.90;;;;;;5024166;28;20088;-79
2021/04/17 05:51:54;;;;;;;24.02;13.52;;;4.90;99.90;;;;;;5021660;28;20037;-78
2021/04/17 05:54:20;;;;;;;23.27;13.77;;;5.00;99.90;;;;;;5029266;28;20061;-79
2021/04/17 05:56:45;;;;;;;27.17;13.98;;;5.10;99.90;;;;;;5026827;28;20045;-78
2021/04/17 05:59:11;;;;;;;26.20;13.90;;;5.20;99.90;;;;;;5027804;28;20056;-78
2021/04/17 06:01:37;;;;;;;25.42;14.32;;;5.20;99.90;;;;;;5025580;28;20034;-78
2021/04/17 06:04:03;;;;;;;27.95;14.30;;;5.20;99.90;;;;;;5028131;28;20037;-77
2021/04/17 06:06:29;;;;;;;26.42;14.07;;;5.20;99.90;;;;;;5034153;28;20037;-79
2021/04/17 06:08:54;;;;;;;27.38;14.30;;;5.20;99.90;;;;;;5030145;28;20038;-79
2021/04/17 06:11:20;;;;;;;25.75;13.77;;;5.30;99.90;;;;;;5048318;28;20067;-78
2021/04/17 06:13:46;;;;;;;22.55;13.93;;;5.40;99.90;;;;;;5035415;28;20030;-78
2021/04/17 06:16:11;;;;;;;25.17;14.20;;;5.40;99.90;;;;;;5034383;28;20122;-79
2021/04/17 06:18:37;;;;;;;27.77;13.75;;;5.60;99.90;;;;;;5034711;28;20033;-79
2021/04/17 06:21:04;;;;;;;25.65;13.52;;;5.60;99.90;;;;;;5043006;28;20033;-79
2021/04/17 06:23:30;;;;;;;24.98;14.40;;;5.60;99.90;;;;;;5033434;28;22154;-78
2021/04/17 06:25:55;;;;;;;24.20;13.48;;;5.60;99.90;;;;;;5032490;28;20092;-78
2021/04/17 06:28:21;;;;;;;24.75;13.55;;;5.70;99.90;;;;;;5034132;28;20056;-78
2021/04/17 06:30:46;;;;;;;25.73;13.98;;;5.80;99.90;;;;;;5030588;28;20033;-78
2021/04/17 06:33:12;;;;;;;26.58;14.80;;;5.70;99.90;;;;;;5037489;28;20098;-79
2021/04/17 06:35:39;;;;;;;26.85;14.57;;;5.70;99.90;;;;;;5031489;28;20499;-79
2021/04/17 06:38:08;;;;;;;24.67;13.98;;;5.60;99.90;;;;;;5029419;28;20045;-80
2021/04/17 06:40:35;;;;;;;24.90;13.35;;;5.80;99.90;;;;;;5034395;28;20459;-78
2021/04/17 06:43:04;;;;;;;26.55;13.63;;;5.80;99.90;;;;;;5022150;28;20351;-77
2021/04/17 06:45:31;;;;;;;29.55;14.50;;;5.80;99.90;;;;;;5024039;28;20044;-77
2021/04/17 06:47:58;;;;;;;27.45;13.90;;;6.00;98.90;;;;;;5032942;28;20041;-78
2021/04/17 06:50:24;;;;;;;27.65;14.57;;;5.90;98.30;;;;;;5035791;28;20063;-78
2021/04/17 06:52:52;;;;;;;24.45;13.75;;;6.30;98.50;;;;;;5032468;28;20103;-78
2021/04/17 06:55:18;;;;;;;21.58;12.80;;;6.10;97.40;;;;;;5025221;28;20053;-79
2021/04/17 06:57:44;;;;;;;23.48;13.98;;;6.30;97.30;;;;;;5023964;28;20039;-79
2021/04/17 07:00:12;;;;;;;26.15;14.98;;;6.70;96.50;;;;;;5025431;28;20054;-78
2021/04/17 07:02:38;;;;;;;22.30;13.25;;;6.80;94.90;;;;;;5033064;28;20040;-79
2021/04/17 07:05:05;;;;;;;22.85;13.05;;;7.00;93.00;;;;;;5032261;28;20109;-78
2021/04/17 07:07:32;;;;;;;24.95;13.15;;;7.10;90.80;;;;;;5036803;28;20053;-78
2021/04/17 07:09:57;;;;;;;23.20;12.65;;;7.40;90.20;;;;;;5049214;28;20083;-78
2021/04/17 07:12:23;;;;;;;34.22;12.48;;;7.60;88.70;;;;;;5037777;28;20056;-79
2021/04/17 07:14:51;;;;;;;22.15;12.30;;;8.10;86.20;;;;;;5027886;28;20191;-78
2021/04/17 07:17:17;;;;;;;20.65;12.40;;;8.20;81.00;;;;;;5045111;28;20060;-78
2021/04/17 07:19:56;;;;;;;23.55;11.77;;;8.40;80.60;;;;;;5026534;28;20050;-80
2021/04/17 07:22:26;;;;;;;24.02;12.65;;;8.60;79.40;;;;;;5028435;28;20043;-80
2021/04/17 07:24:54;;;;;;;21.55;12.38;;;8.60;76.30;;;;;;5027485;28;20029;-79
2021/04/17 07:27:37;;;;;;;25.63;13.25;;;8.80;76.90;;;;;;5023919;28;20093;-79
2021/04/17 07:30:08;;;;;;;25.38;13.30;;;8.80;75.60;;;;;;5032750;28;20044;-79
2021/04/17 07:32:34;;;;;;;18.27;11.23;;;8.80;75.30;;;;;;5037134;28;20040;-80
2021/04/17 07:35:31;;;;;;;20.98;12.57;;;8.90;75.30;;;;;;5022742;28;20054;-80
2021/04/17 07:38:21;;;;;;;21.90;12.35;;;9.10;72.80;;;;;;5017691;28;20389;-80
2021/04/17 07:41:12;;;;;;;24.70;12.38;;;9.30;71.50;;;;;;5035117;28;20037;-79
2021/04/17 07:44:02;;;;;;;24.17;12.80;;;9.50;70.40;;;;;;5027123;28;20033;-80
2021/04/17 07:46:39;;;;;;;21.55;11.40;;;9.40;69.80;;;;;;5022881;28;20041;-80
2021/04/17 07:49:13;;;;;;;19.85;11.52;;;9.40;68.50;;;;;;5022582;28;20386;-80
2021/04/17 07:52:01;;;;;;;21.30;12.00;;;9.40;68.70;;;;;;5026910;28;20053;-80
2021/04/17 07:54:27;;;;;;;20.52;12.25;;;9.50;67.60;;;;;;5025189;28;20115;-80
2021/04/17 07:56:53;;;;;;;25.55;12.02;;;9.80;68.10;;;;;;5024275;28;20046;-80
2021/04/17 07:59:21;;;;;;;22.35;12.05;;;9.30;66.70;;;;;;5025889;28;20037;-79
2021/04/17 08:01:49;;;;;;;22.20;13.15;;;9.20;66.20;;;;;;5025151;28;20041;-80
2021/04/17 08:04:22;;;;;;;21.05;12.15;;;9.40;66.20;;;;;;5044929;28;20046;-81
2021/04/17 08:06:48;;;;;;;24.40;11.93;;;9.50;66.30;;;;;;5031121;28;20075;-79
2021/04/17 08:09:14;;;;;;;21.25;12.18;;;9.60;65.30;;;;;;5026308;28;20042;-80
2021/04/17 08:11:40;;;;;;;22.58;12.30;;;9.80;65.10;;;;;;5030362;28;20212;-78
2021/04/17 08:14:09;;;;;;;27.95;11.77;;;9.80;64.00;;;;;;5028803;28;20155;-79
2021/04/17 08:16:35;;;;;;;22.67;12.50;;;9.60;64.00;;;;;;5017170;28;20049;-78
2021/04/17 08:19:01;;;;;;;22.35;10.38;;;9.50;64.40;;;;;;5026238;28;20092;-79
2021/04/17 08:21:26;;;;;;;26.67;11.63;;;9.70;63.90;;;;;;5029176;28;20030;-79
2021/04/17 08:23:54;;;;;;;18.35;10.75;;;9.90;63.80;;;;;;5019796;28;20713;-79
2021/04/17 08:26:20;;;;;;;20.27;10.98;;;10.00;61.60;;;;;;5031595;28;20148;-79
2021/04/17 08:28:48;;;;;;;19.10;10.75;;;10.20;60.90;;;;;;5027939;28;20029;-79
2021/04/17 08:31:27;;;;;;;19.50;11.20;;;10.40;60.20;;;;;;5021513;28;20025;-79
2021/04/17 08:34:17;;;;;;;23.27;12.13;;;10.50;60.20;;;;;;5024672;28;20075;-79
2021/04/17 08:36:51;;;;;;;20.48;11.02;;;10.30;58.20;;;;;;5024069;28;20041;-79
2021/04/17 08:39:31;;;;;;;19.27;9.80;;;10.40;58.10;;;;;;5021939;28;20049;-79
2021/04/17 08:41:57;;;;;;;24.30;10.02;;;10.80;55.80;;;;;;5029760;28;20520;-79
2021/04/17 08:44:43;;;;;;;18.88;11.27;;;11.30;56.10;;;;;;5025133;28;20037;-79
2021/04/17 08:47:10;;;;;;;19.80;9.73;;;11.60;51.20;;;;;;5032039;28;20037;-79
2021/04/17 08:49:38;;;;;;;20.17;9.02;;;11.70;50.30;;;;;;5026910;28;20030;-78
2021/04/17 08:52:10;;;;;;;17.83;8.95;;;11.40;48.60;;;;;;5022484;28;20653;-80
2021/04/17 08:54:39;;;;;;;14.77;7.90;;;11.10;49.50;;;;;;5024335;28;20083;-79
2021/04/17 08:57:15;;;;;;;15.50;7.30;;;11.10;48.90;;;;;;5041125;28;20026;-80
2021/04/17 08:59:43;;;;;;;12.77;6.85;;;10.70;48.60;;;;;;5016925;28;20048;-80
2021/04/17 09:02:11;;;;;;;17.45;8.20;;;10.60;49.30;;;;;;5037156;28;20029;-80
2021/04/17 09:04:58;;;;;;;20.60;8.40;;;10.40;50.20;;;;;;5020017;28;20057;-82
2021/04/17 09:07:26;;;;;;;17.90;8.20;;;10.80;50.80;;;;;;5025988;28;20043;-80
2021/04/17 09:09:53;;;;;;;15.90;8.15;;;11.20;50.00;;;;;;5015188;28;20037;-80
2021/04/17 09:12:21;;;;;;;20.77;8.80;;;11.40;49.10;;;;;;5024863;28;20506;-80
2021/04/17 09:14:55;;;;;;;13.63;8.40;;;11.70;48.70;;;;;;5015434;28;20095;-80
2021/04/17 09:17:37;;;;;;;14.75;8.73;;;11.30;48.00;;;;;;5017409;28;20105;-79
2021/04/17 09:20:10;;;;;;;13.65;7.70;;;11.10;47.80;;;;;;5022667;28;20062;-79
2021/04/17 09:22:38;;;;;;;16.15;7.60;;;10.90;47.80;;;;;;5026131;28;20287;-79
2021/04/17 09:25:34;;;;;;;19.38;8.48;;;11.20;48.60;;;;;;5026771;28;20121;-79
2021/04/17 09:28:00;;;;;;;15.02;8.90;;;11.10;47.50;;;;;;5024276;28;22212;-81
2021/04/17 09:30:25;;;;;;;22.30;8.70;;;11.50;47.90;;;;;;5027129;28;20052;-78
2021/04/17 09:32:54;;;;;;;12.65;7.18;;;11.80;44.70;;;;;;5022795;28;20085;-77
2021/04/17 09:35:26;;;;;;;17.98;6.85;;;12.30;43.40;;;;;;5031256;28;20057;-78
2021/04/17 09:38:01;;;;;;;14.20;6.93;;;12.20;38.90;;;;;;5029846;28;20034;-79
2021/04/17 09:40:37;;;;;;;16.90;7.50;;;12.50;40.70;;;;;;5023801;28;20068;-78
2021/04/17 09:43:04;;;;;;;17.77;8.13;;;11.70;40.10;;;;;;5030282;28;20053;-78
2021/04/17 09:45:34;;;;;;;14.52;6.30;;;11.80;42.30;;;;;;5021010;28;20054;-79
2021/04/17 09:48:04;;;;;;;13.35;5.93;;;12.00;40.70;;;;;;5043600;28;20076;-81
2021/04/17 09:56:38;;;;;;;10.75;6.18;;;12.00;39.70;;;;;;5033345;23;20056;-76
2021/04/17 09:59:15;;;;;;;13.02;6.65;;;12.20;39.20;;;;;;5024296;28;20041;-76
2021/04/17 10:01:52;;;;;;;16.95;6.95;;;12.30;38.00;;;;;;4991764;28;20037;-76
2021/04/17 10:04:17;;;;;;;13.60;5.90;;;12.10;38.60;;;;;;5021736;28;20076;-75
2021/04/17 10:06:43;;;;;;;11.65;6.22;;;12.10;39.70;;;;;;4978710;28;20508;-73
2021/04/17 10:09:13;;;;;;;12.60;6.53;;;11.90;39.10;;;;;;4993750;28;20041;-73
2021/04/17 10:11:40;;;;;;;14.05;5.80;;;11.70;39.90;;;;;;4981858;28;20034;-75
2021/04/17 10:14:08;;;;;;;9.25;5.15;;;11.30;39.30;;;;;;4994688;28;20125;-73
2021/04/17 10:16:36;;;;;;;14.77;6.53;;;11.00;41.30;;;;;;4983134;28;20137;-74
2021/04/17 10:19:04;;;;;;;12.95;5.97;;;11.10;42.20;;;;;;4984768;28;20069;-77
2021/04/17 10:21:32;;;;;;;11.70;6.25;;;10.80;40.90;;;;;;4998562;28;20545;-77
2021/04/17 10:24:25;;;;;;;14.20;6.65;;;10.40;43.50;;;;;;5001342;28;20155;-75
2021/04/17 10:27:08;;;;;;;17.55;6.03;;;10.70;43.40;;;;;;4979170;28;20044;-74
2021/04/17 10:29:49;;;;;;;15.18;5.25;;;11.10;44.20;;;;;;4983648;28;20077;-76
2021/04/17 10:32:17;;;;;;;13.32;6.07;;;11.10;40.90;;;;;;4992789;28;20458;-74
2021/04/17 10:34:48;;;;;;;8.85;5.03;;;11.00;40.70;;;;;;4972701;28;20042;-74
2021/04/17 10:37:20;;;;;;;10.73;5.25;;;11.30;41.60;;;;;;4991436;28;20043;-74
2021/04/17 10:40:05;;;;;;;11.52;5.68;;;11.20;41.00;;;;;;4991959;28;20045;-74
2021/04/17 10:43:00;;;;;;;13.45;6.60;;;11.10;40.30;;;;;;4996569;28;20058;-74
2021/04/17 10:45:28;;;;;;;11.98;5.82;;;11.10;41.70;;;;;;4983958;28;20764;-75
2021/04/17 10:48:01;;;;;;;14.93;5.55;;;11.20;40.80;;;;;;4994649;28;20483;-74
2021/04/17 10:50:28;;;;;;;8.05;5.78;;;11.50;40.60;;;;;;4994265;28;21194;-74
2021/04/17 10:53:00;;;;;;;11.25;5.20;;;11.30;39.50;;;;;;5000542;28;20060;-74
2021/04/17 10:55:35;;;;;;;10.30;6.03;;;11.20;40.20;;;;;;5001699;28;20041;-74
2021/04/17 10:58:01;;;;;;;14.15;5.60;;;11.10;40.20;;;;;;4997542;28;20426;-75
2021/04/17 11:00:29;;;;;;;12.25;5.22;;;11.10;39.90;;;;;;4996349;28;20037;-75
2021/04/17 11:02:55;;;;;;;8.30;4.60;;;11.30;40.00;;;;;;4998767;28;20519;-75
2021/04/17 11:05:21;;;;;;;9.88;4.70;;;11.50;38.10;;;;;;4981691;28;20041;-74
2021/04/17 11:07:46;;;;;;;22.25;5.82;;;11.80;37.70;;;;;;5005932;28;20114;-74
2021/04/17 11:10:12;;;;;;;11.23;5.55;;;12.00;37.70;;;;;;5003581;28;20072;-74
2021/04/17 11:12:38;;;;;;;14.20;4.15;;;12.00;35.40;;;;;;5000866;28;20126;-73
2021/04/17 11:15:21;;;;;;;12.63;4.30;;;12.70;36.10;;;;;;5001604;28;20141;-73
2021/04/17 11:18:09;;;;;;;11.25;4.30;;;13.10;32.70;;;;;;4999463;28;20034;-73
2021/04/17 11:21:00;;;;;;;6.40;4.70;;;13.80;29.50;;;;;;5008354;28;20091;-75
2021/04/17 11:23:35;;;;;;;9.40;4.07;;;13.90;27.50;;;;;;4991490;28;20582;-74
2021/04/17 11:26:02;;;;;;;;;;;13.20;25.80;;;;;;4998831;28;20030;-74
2021/04/17 11:28:27;;;;;;;12.43;4.07;;;12.40;27.90;;;;;;4995440;28;19925;-74
2021/04/17 11:30:57;;;;;;;10.63;4.07;;;12.70;29.80;;;;;;4995166;28;20042;-74
2021/04/17 11:33:23;;;;;;;11.88;4.05;;;13.00;29.60;;;;;;4992890;28;20041;-74
2021/04/17 11:35:49;;;;;;;7.88;3.92;;;12.80;28.20;;;;;;4980067;28;20046;-74
2021/04/17 11:38:15;;;;;;;10.00;4.70;;;12.50;28.70;;;;;;4994869;28;20514;-74
2021/04/17 11:40:41;;;;;;;9.18;4.28;;;12.60;29.60;;;;;;4994260;28;20062;-75
2021/04/17 11:43:06;;;;;;;9.65;3.63;;;13.60;28.70;;;;;;4996826;28;20045;-75
2021/04/17 11:45:32;;;;;;;19.67;3.67;;;15.20;26.10;;;;;;5005498;28;20080;-74
2021/04/17 11:47:57;;;;;;;14.88;3.65;;;15.50;23.60;;;;;;4984235;28;20124;-74
2021/04/17 11:50:23;;;;;;;10.52;4.70;;;15.40;23.60;;;;;;5003582;28;20056;-75
2021/04/17 11:52:49;;;;;;;11.02;4.32;;;15.00;23.00;;;;;;4999803;28;20469;-73
2021/04/17 11:55:14;;;;;;;6.65;3.53;;;15.50;22.80;;;;;;4990849;28;20115;-74
2021/04/17 11:57:40;;;;;;;11.50;4.03;;;15.50;22.90;;;;;;5002358;28;20034;-74
2021/04/17 12:00:06;;;;;;;6.88;3.90;;;14.90;22.80;;;;;;5005516;28;20096;-74
2021/04/17 12:02:32;;;;;;;6.63;3.75;;;15.00;23.10;;;;;;5008780;28;20053;-74
2021/04/17 12:04:58;;;;;;;8.98;3.53;;;14.50;20.90;;;;;;5003752;28;20402;-76
2021/04/17 12:07:24;;;;;;;5.30;2.92;;;14.10;21.50;;;;;;5004018;28;20057;-74
2021/04/17 12:09:52;;;;;;;9.50;4.10;;;13.20;21.90;;;;;;5008231;28;20066;-75
2021/04/17 12:12:18;;;;;;;6.07;3.50;;;13.30;25.40;;;;;;4987122;28;20572;-75
2021/04/17 12:14:44;;;;;;;20.83;3.88;;;13.50;24.50;;;;;;5002535;28;20046;-75
2021/04/17 12:17:09;;;;;;;6.85;3.65;;;13.00;25.70;;;;;;5002237;28;20037;-76
2021/04/17 12:19:35;;;;;;;12.45;3.38;;;13.10;26.30;;;;;;5002447;28;20092;-74
2021/04/17 12:22:01;;;;;;;6.57;3.30;;;12.80;26.60;;;;;;5002263;28;20065;-75
2021/04/17 12:24:26;;;;;;;9.65;4.20;;;13.10;26.50;;;;;;5005166;28;20563;-74
2021/04/17 12:26:52;;;;;;;7.53;3.55;;;13.10;25.20;;;;;;4999737;28;20384;-74
2021/04/17 12:29:18;;;;;;;10.45;3.85;;;13.50;26.10;;;;;;4986695;28;20047;-74
2021/04/17 12:31:43;;;;;;;9.10;3.80;;;14.20;24.60;;;;;;5003146;28;20116;-74
2021/04/17 12:34:09;;;;;;;7.18;3.53;;;14.30;23.10;;;;;;5001433;28;20042;-74
2021/04/17 12:36:35;;;;;;;9.93;3.40;;;14.40;22.40;;;;;;4991836;28;20146;-74
2021/04/17 12:39:00;;;;;;;6.05;3.17;;;14.50;22.80;;;;;;4988955;28;20562;-73
2021/04/17 12:41:26;;;;;;;9.20;3.58;;;14.30;22.60;;;;;;4989052;28;20065;-73
2021/04/17 12:43:52;;;;;;;8.63;3.70;;;13.50;23.90;;;;;;5003528;28;20069;-76
2021/04/17 12:46:17;;;;;;;9.02;3.65;;;13.20;24.90;;;;;;4989791;28;20121;-75
2021/04/17 12:48:43;;;;;;;6.38;2.97;;;13.70;25.40;;;;;;5008043;28;20117;-74
2021/04/17 12:51:09;;;;;;;7.95;3.30;;;13.20;23.70;;;;;;5005137;28;20033;-74
2021/04/17 12:53:34;;;;;;;9.75;3.50;;;13.30;23.60;;;;;;4995171;28;20033;-74